Lake Villa, Illinois
Current Conditions -  °F | °C
As of 6:20 AM on Tuesday 27 Jan 2015 (Local Time) from KUGN Reporting Station
Overcast Overcast  
Wind Chill: -6°   Ceiling: 1600
Heat Index: -3°   Visibility: 10mi
Dew Point: -5°   Wind: 5mph
Humidity: 85%   Direction: 50°NE
Pressure: 30.05"   Gusts: NA
Location:  42.42°N, 88.07°W
Report Text: KUGN 271220Z 05004KT 10SM OVC016 M03/M05 A3005 RMK AO2 T10281050
Loading
Personal Weather Stations






























Interactive Weather Map New forecast layout! Learn more

10-Day Weather Forecast

Advertisements
Track Severe Weather on mobile